Time;durP1;ratioP1;P1;durP2;ratioP2;P2;SDS_P1;SDS_P2;PMS_P1;PMS_P2;Temp;Humidity;BMP_temperature;BMP_pressure;BME280_temperature;BME280_humidity;BME280_pressure;Samples;Min_cycle;Max_cycle;Signal;HPM_P1;HPM_P2
2022/01/09 00:01:26;;;;;;;4.43;1.33;;;;;;;11.28;61.47;101869.81;5031124;28;20060;-82
2022/01/09 00:03:55;;;;;;;4.13;0.95;;;;;;;11.24;61.73;101868.78;5030397;28;20085;-82
2022/01/09 00:06:24;;;;;;;6.07;1.00;;;;;;;11.24;61.21;101867.91;5030699;28;20041;-82
2022/01/09 00:08:52;;;;;;;2.13;0.93;;;;;;;11.19;60.65;101870.28;5030529;28;20045;-82
2022/01/09 00:11:26;;;;;;;3.40;0.98;;;;;;;11.16;59.88;101870.16;5030340;28;20076;-81
2022/01/09 00:13:57;;;;;;;3.53;1.05;;;;;;;11.10;63.19;101869.88;5030392;28;20041;-82
2022/01/09 00:16:26;;;;;;;2.72;0.80;;;;;;;10.99;60.86;101879.75;5016429;28;20046;-82
2022/01/09 00:18:54;;;;;;;6.57;1.50;;;;;;;10.93;62.22;101884.66;5030715;28;20046;-82
2022/01/09 00:21:23;;;;;;;3.40;0.80;;;;;;;10.89;62.83;101890.50;5050959;28;20153;-82
2022/01/09 00:23:51;;;;;;;3.53;1.17;;;;;;;10.84;62.32;101892.00;5050088;28;20583;-82
2022/01/09 00:26:20;;;;;;;4.63;1.52;;;;;;;10.80;62.30;101892.66;5050429;28;20049;-82
2022/01/09 00:28:48;;;;;;;3.72;0.95;;;;;;;10.76;61.68;101898.50;5050165;28;20045;-82
2022/01/09 00:31:18;;;;;;;4.22;1.52;;;;;;;10.71;61.49;101894.81;5054018;28;20626;-83
2022/01/09 00:33:47;;;;;;;9.07;1.60;;;;;;;10.65;61.28;101895.41;5050383;28;20099;-83
2022/01/09 00:36:15;;;;;;;2.50;1.23;;;;;;;10.60;62.06;101894.31;5049591;28;20056;-82
2022/01/09 00:38:44;;;;;;;4.72;1.40;;;;;;;10.53;63.63;101894.84;5050343;28;20053;-83
2022/01/09 00:41:12;;;;;;;4.57;0.82;;;;;;;10.46;66.85;101893.66;5053098;28;20394;-83
2022/01/09 00:43:41;;;;;;;2.60;1.13;;;;;;;10.35;64.98;101892.25;5053642;28;20048;-83
2022/01/09 00:46:09;;;;;;;2.53;1.00;;;;;;;10.27;65.87;101894.44;5053172;28;20049;-83
2022/01/09 00:48:39;;;;;;;3.45;1.52;;;;;;;10.17;65.56;101885.34;5052561;28;20049;-84
2022/01/09 00:51:08;;;;;;;4.35;1.63;;;;;;;10.07;65.84;101875.34;5053625;28;20134;-84
2022/01/09 00:53:36;;;;;;;7.28;1.38;;;;;;;9.96;67.59;101879.97;5053561;28;20053;-84
2022/01/09 00:56:06;;;;;;;4.15;1.35;;;;;;;9.89;68.67;101883.06;5054444;28;20103;-84
2022/01/09 00:58:35;;;;;;;4.43;1.23;;;;;;;9.80;68.12;101880.94;5055494;28;20056;-83
2022/01/09 01:01:03;;;;;;;5.78;1.45;;;;;;;9.71;68.46;101883.03;5053977;28;20095;-83
2022/01/09 01:03:32;;;;;;;2.72;1.05;;;;;;;9.63;68.92;101885.22;5053926;28;20063;-83
2022/01/09 01:06:02;;;;;;;7.63;1.33;;;;;;;9.52;69.50;101880.31;5040793;28;20048;-81
2022/01/09 01:08:30;;;;;;;5.20;1.35;;;;;;;9.41;70.79;101885.81;5053595;28;20076;-82
2022/01/09 01:10:59;;;;;;;4.25;0.98;;;;;;;9.31;72.11;101880.97;5052790;28;20068;-83
2022/01/09 01:13:27;;;;;;;5.72;1.63;;;;;;;9.20;72.59;101876.91;5053257;28;20529;-81
2022/01/09 01:15:57;;;;;;;5.22;1.30;;;;;;;9.12;72.79;101888.56;5052935;28;20106;-81
2022/01/09 01:18:25;;;;;;;6.20;1.25;;;;;;;9.03;73.51;101888.94;5053634;28;20045;-80
2022/01/09 01:20:54;;;;;;;3.75;1.60;;;;;;;8.95;73.98;101885.06;5053562;28;20100;-82
2022/01/09 01:23:24;;;;;;;4.72;2.03;;;;;;;8.86;74.70;101890.59;5052677;28;20049;-81
2022/01/09 01:25:52;;;;;;;11.45;3.97;;;;;;;8.78;76.37;101889.31;5052349;28;20486;-81
2022/01/09 01:28:21;;;;;;;4.78;2.42;;;;;;;8.72;78.32;101891.53;5054816;28;20045;-81
2022/01/09 01:30:50;;;;;;;9.88;3.72;;;;;;;8.63;77.88;101883.28;5054824;28;20057;-81
2022/01/09 01:33:19;;;;;;;7.03;4.07;;;;;;;8.56;79.65;101890.69;5052519;28;20053;-82
2022/01/09 01:35:47;;;;;;;11.90;4.95;;;;;;;8.48;79.37;101881.66;5052383;28;20061;-83
2022/01/09 01:38:16;;;;;;;12.10;4.60;;;;;;;8.44;79.04;101882.28;5052910;28;20122;-82
2022/01/09 01:40:46;;;;;;;9.48;4.47;;;;;;;8.38;79.79;101889.63;5052810;28;20048;-82
2022/01/09 01:43:15;;;;;;;14.98;3.97;;;;;;;8.33;81.22;101888.47;5051776;28;20079;-82
2022/01/09 01:45:43;;;;;;;16.23;4.70;;;;;;;8.26;81.47;101884.66;5052298;28;20085;-83
2022/01/09 01:48:12;;;;;;;8.82;4.40;;;;;;;8.16;81.87;101883.25;5052408;28;20509;-82
2022/01/09 01:50:41;;;;;;;11.02;4.63;;;;;;;8.11;83.14;101884.69;5052036;28;20478;-83
2022/01/09 01:53:14;;;;;;;13.88;5.50;;;;;;;8.04;84.53;101871.34;5052158;28;20076;-82
2022/01/09 01:55:48;;;;;;;7.65;3.45;;;;;;;7.89;86.29;101869.66;5039170;28;20064;-83
2022/01/09 01:58:16;;;;;;;5.07;2.25;;;;;;;7.76;93.82;101874.88;5052691;28;20495;-83
2022/01/09 02:00:45;;;;;;;5.32;2.53;;;;;;;7.67;96.68;101875.25;5051923;28;20103;-83
2022/01/09 02:03:13;;;;;;;5.70;2.67;;;;;;;7.60;98.97;101883.41;5052550;28;20053;-84
2022/01/09 02:05:44;;;;;;;6.72;2.75;;;;;;;7.56;100.00;101886.59;5051996;28;20057;-85
2022/01/09 02:08:13;;;;;;;7.30;3.28;;;;;;;7.50;99.77;101892.25;5053097;28;20499;-83
2022/01/09 02:10:44;;;;;;;6.22;3.83;;;;;;;7.42;97.60;101888.34;5051741;28;20057;-83
2022/01/09 02:13:16;;;;;;;7.63;3.42;;;;;;;7.36;96.39;101898.28;5052077;28;20057;-82
2022/01/09 02:15:47;;;;;;;11.60;2.55;;;;;;;7.32;95.85;101892.03;5037364;28;20056;-82
2022/01/09 02:18:17;;;;;;;6.57;2.83;;;;;;;7.29;95.56;101899.59;5052645;28;20045;-82
2022/01/09 02:20:49;;;;;;;6.65;2.67;;;;;;;7.25;94.71;101883.84;5053568;27;20061;-81
2022/01/09 02:23:19;;;;;;;7.68;2.42;;;;;;;7.20;97.94;101888.72;5051837;28;20076;-83
2022/01/09 02:25:48;;;;;;;6.10;2.60;;;;;;;7.05;100.00;101880.94;5051709;28;20099;-82
2022/01/09 02:28:18;;;;;;;5.93;2.17;;;;;;;6.99;99.61;101878.00;5054735;28;20045;-82
2022/01/09 02:30:49;;;;;;;5.35;1.80;;;;;;;6.90;100.00;101880.00;5052672;28;20045;-82
2022/01/09 02:33:18;;;;;;;5.40;1.58;;;;;;;6.75;100.00;101864.50;5055069;28;20045;-82
2022/01/09 02:35:53;;;;;;;3.92;1.75;;;;;;;6.69;100.00;101870.16;5051499;28;20503;-82
2022/01/09 02:38:22;;;;;;;6.00;2.28;;;;;;;6.69;100.00;101867.59;5051873;28;20052;-83
2022/01/09 02:40:54;;;;;;;7.40;2.10;;;;;;;6.65;100.00;101862.16;5052479;28;20107;-83
2022/01/09 02:43:24;;;;;;;2.30;1.48;;;;;;;6.59;100.00;101859.19;5053617;28;20699;-83
2022/01/09 02:45:59;;;;;;;4.85;1.48;;;;;;;6.57;100.00;101859.06;5051968;28;20482;-82
2022/01/09 02:48:33;;;;;;;6.25;1.73;;;;;;;6.55;100.00;101860.69;5052034;28;20041;-83
2022/01/09 02:51:08;;;;;;;4.63;2.00;;;;;;;6.57;100.00;101858.19;5051961;28;20539;-83
2022/01/09 02:53:39;;;;;;;7.32;1.52;;;;;;;6.58;100.00;101850.59;5051826;28;20049;-84
2022/01/09 02:56:09;;;;;;;3.42;1.80;;;;;;;6.67;100.00;101866.59;5052170;28;20053;-83
2022/01/09 02:58:38;;;;;;;3.05;1.25;;;;;;;6.73;100.00;101863.50;5052204;28;20111;-82
2022/01/09 03:01:08;;;;;;;6.15;1.63;;;;;;;6.75;100.00;101861.91;5051323;28;20490;-82
2022/01/09 03:03:37;;;;;;;3.42;1.33;;;;;;;6.78;100.00;101871.50;5050314;28;20560;-82
2022/01/09 03:06:07;;;;;;;5.75;1.92;;;;;;;6.75;100.00;101864.50;5051116;28;20102;-82
2022/01/09 03:08:37;;;;;;;13.73;1.98;;;;;;;6.77;100.00;101859.44;5051001;28;20060;-83
2022/01/09 03:11:06;;;;;;;7.18;1.50;;;;;;;6.74;100.00;101862.72;5048376;28;20071;-82
2022/01/09 03:13:34;;;;;;;4.57;1.38;;;;;;;6.72;100.00;101869.44;5040276;28;20049;-83
2022/01/09 03:16:03;;;;;;;5.78;1.63;;;;;;;6.70;100.00;101865.91;5050890;28;20045;-82
2022/01/09 03:18:32;;;;;;;7.07;1.67;;;;;;;6.68;100.00;101862.31;5051200;28;20045;-82
2022/01/09 03:21:00;;;;;;;3.05;1.60;;;;;;;6.67;100.00;101861.44;5052275;27;20068;-83
2022/01/09 03:23:30;;;;;;;5.25;2.08;;;;;;;6.66;100.00;101861.34;5051228;28;20049;-80
2022/01/09 03:26:02;;;;;;;3.97;1.40;;;;;;;6.56;100.00;101844.44;5038762;28;20053;-80
2022/01/09 03:28:30;;;;;;;11.70;1.98;;;;;;;6.61;100.00;101849.88;5054464;28;20068;-80
2022/01/09 03:30:59;;;;;;;11.32;3.10;;;;;;;6.62;100.00;101856.78;5050763;28;20053;-80
2022/01/09 03:33:27;;;;;;;5.57;2.28;;;;;;;6.62;100.00;101859.38;5050614;28;20041;-81
2022/01/09 03:35:56;;;;;;;9.48;2.55;;;;;;;6.57;100.00;101861.66;5050573;28;20056;-82
2022/01/09 03:38:24;;;;;;;6.60;3.42;;;;;;;6.53;100.00;101867.41;5050572;28;20107;-79
2022/01/09 03:40:54;;;;;;;7.65;2.85;;;;;;;6.52;100.00;101880.16;5051239;28;20080;-81
2022/01/09 03:43:23;;;;;;;6.50;2.67;;;;;;;6.50;100.00;101873.25;5051453;28;20495;-83
2022/01/09 03:45:51;;;;;;;7.00;2.22;;;;;;;6.47;100.00;101882.44;5051312;28;20048;-83
2022/01/09 03:48:20;;;;;;;4.32;2.17;;;;;;;6.45;100.00;101884.91;5051906;28;20084;-82
2022/01/09 03:50:51;;;;;;;9.57;3.22;;;;;;;6.41;100.00;101885.47;5052290;28;20134;-81
2022/01/09 03:53:20;;;;;;;7.90;3.15;;;;;;;6.42;100.00;101879.56;5052563;28;20048;-82
2022/01/09 03:55:48;;;;;;;12.95;3.47;;;;;;;6.39;100.00;101879.38;5055640;28;20049;-83
2022/01/09 03:58:18;;;;;;;8.30;3.55;;;;;;;6.38;100.00;101874.13;5056436;28;20052;-83
2022/01/09 04:00:47;;;;;;;10.70;4.78;;;;;;;6.33;100.00;101871.25;5051881;28;20041;-84
2022/01/09 04:03:15;;;;;;;35.95;10.10;;;;;;;6.32;100.00;101879.75;5051153;28;20053;-80
2022/01/09 04:05:44;;;;;;;33.42;12.25;;;;;;;6.27;100.00;101889.72;5050142;28;20080;-79
2022/01/09 04:08:12;;;;;;;27.63;9.63;;;;;;;6.23;100.00;101886.88;5050412;28;20111;-81
2022/01/09 04:10:43;;;;;;;19.33;6.80;;;;;;;6.18;100.00;101885.69;5050121;28;20049;-79
2022/01/09 04:13:14;;;;;;;17.95;6.65;;;;;;;6.10;100.00;101889.44;5050989;28;20068;-81
2022/01/09 04:15:47;;;;;;;16.38;7.25;;;;;;;6.03;100.00;101889.03;5053036;28;20045;-81
2022/01/09 04:18:16;;;;;;;19.88;7.13;;;;;;;6.01;100.00;101890.63;5054675;28;20045;-81
2022/01/09 04:20:52;;;;;;;17.83;6.30;;;;;;;6.00;100.00;101893.97;5058351;27;20053;-80
2022/01/09 04:23:22;;;;;;;19.92;7.80;;;;;;;5.97;100.00;101888.63;5054534;28;20048;-80
2022/01/09 04:25:53;;;;;;;21.63;9.25;;;;;;;5.97;100.00;101885.16;5055964;28;20130;-80
2022/01/09 04:28:22;;;;;;;19.83;9.23;;;;;;;5.94;100.00;101887.50;5057387;28;20140;-81
2022/01/09 04:30:52;;;;;;;26.00;10.35;;;;;;;5.90;100.00;101894.13;5042435;28;20517;-79
2022/01/09 04:33:21;;;;;;;22.08;8.40;;;;;;;5.89;100.00;101887.22;5052475;28;20132;-80
2022/01/09 04:35:49;;;;;;;12.98;5.97;;;;;;;5.87;100.00;101893.91;5055040;28;20052;-79
2022/01/09 04:38:18;;;;;;;12.20;5.22;;;;;;;5.83;100.00;101889.34;5055415;28;20091;-80
2022/01/09 04:40:46;;;;;;;10.68;4.40;;;;;;;5.78;100.00;101890.75;5055818;28;20056;-79
2022/01/09 04:43:15;;;;;;;12.60;5.30;;;;;;;5.69;100.00;101888.44;5054133;28;20122;-79
2022/01/09 04:45:45;;;;;;;9.68;3.83;;;;;;;5.63;100.00;101886.31;5054029;28;20144;-83
2022/01/09 04:48:15;;;;;;;10.02;3.60;;;;;;;5.58;100.00;101882.56;5042677;28;20049;-78
2022/01/09 04:50:45;;;;;;;13.63;5.00;;;;;;;5.55;100.00;101882.38;5052868;28;20159;-79
2022/01/09 04:53:14;;;;;;;7.70;3.13;;;;;;;5.53;100.00;101881.38;5056590;28;20052;-85
2022/01/09 04:55:46;;;;;;;8.95;3.95;;;;;;;5.50;100.00;101891.44;5055264;28;20049;-81
2022/01/09 04:58:15;;;;;;;10.05;3.50;;;;;;;5.46;100.00;101897.16;5054048;28;20045;-81
2022/01/09 05:00:43;;;;;;;9.65;3.90;;;;;;;5.41;100.00;101889.13;5055824;28;20068;-84
2022/01/09 05:03:17;;;;;;;9.35;3.88;;;;;;;5.39;100.00;101892.38;5052730;28;20041;-82
2022/01/09 05:05:45;;;;;;;8.90;3.80;;;;;;;5.35;100.00;101888.69;5052571;28;20049;-78
2022/01/09 05:08:14;;;;;;;20.33;4.95;;;;;;;5.32;100.00;101887.63;5053532;28;20103;-74
2022/01/09 05:10:42;;;;;;;9.55;4.22;;;;;;;5.30;100.00;101891.75;5053850;28;20045;-80
2022/01/09 05:13:11;;;;;;;11.48;5.03;;;;;;;5.26;100.00;101900.91;5055163;28;20059;-78
2022/01/09 05:15:39;;;;;;;14.73;5.65;;;;;;;5.22;100.00;101899.81;5053351;28;20075;-80
2022/01/09 05:18:13;;;;;;;13.02;6.47;;;;;;;5.19;100.00;101902.16;5052965;28;20107;-81
2022/01/09 05:20:50;;;;;;;12.05;5.47;;;;;;;5.16;100.00;101904.50;5055829;28;20070;-84
2022/01/09 05:23:26;;;;;;;13.63;4.88;;;;;;;5.10;100.00;101901.50;5042477;28;20102;-80
2022/01/09 05:25:54;;;;;;;8.90;3.33;;;;;;;5.07;100.00;101903.88;5051112;28;20049;-77
2022/01/09 05:28:23;;;;;;;11.85;3.13;;;;;;;5.07;100.00;101910.69;5057803;28;20115;-80
2022/01/09 05:30:51;;;;;;;9.88;3.28;;;;;;;5.04;100.00;101906.25;5053545;28;20095;-79
2022/01/09 05:33:20;;;;;;;7.45;2.80;;;;;;;5.01;100.00;101901.75;5053448;28;20102;-78
2022/01/09 05:35:50;;;;;;;8.68;3.05;;;;;;;4.97;100.00;101910.03;5053517;28;20099;-80
2022/01/09 05:38:18;;;;;;;6.43;2.70;;;;;;;4.97;100.00;101914.25;5053032;28;20087;-80
2022/01/09 05:40:47;;;;;;;5.18;2.50;;;;;;;4.94;100.00;101916.63;5053161;28;20193;-83
2022/01/09 05:43:16;;;;;;;6.97;2.67;;;;;;;4.90;100.00;101914.59;5053346;28;20048;-80
2022/01/09 05:45:45;;;;;;;5.78;2.60;;;;;;;4.88;100.00;101921.28;5053084;28;20064;-82
2022/01/09 05:48:13;;;;;;;5.80;1.95;;;;;;;4.85;100.00;101915.97;5052363;28;20060;-81
2022/01/09 05:50:42;;;;;;;8.52;2.60;;;;;;;4.83;100.00;101914.19;5052768;28;20114;-81
2022/01/09 05:53:12;;;;;;;3.85;2.10;;;;;;;4.81;100.00;101905.50;5052020;28;20040;-81
2022/01/09 05:55:40;;;;;;;11.88;2.60;;;;;;;4.80;100.00;101906.25;5052215;28;20088;-82
2022/01/09 05:58:09;;;;;;;6.05;2.45;;;;;;;4.77;100.00;101905.16;5052546;28;20134;-82
2022/01/09 06:00:37;;;;;;;5.20;2.20;;;;;;;4.74;100.00;101903.28;5052320;28;20106;-83
2022/01/09 06:03:06;;;;;;;6.07;2.67;;;;;;;4.71;100.00;101914.97;5052358;28;20055;-82
2022/01/09 06:05:34;;;;;;;11.30;3.00;;;;;;;4.69;100.00;101902.03;5052841;28;20068;-83
2022/01/09 06:08:03;;;;;;;3.72;2.10;;;;;;;4.64;100.00;101912.75;5046249;28;20561;-82
2022/01/09 06:10:33;;;;;;;7.80;2.35;;;;;;;4.60;100.00;101909.06;5047115;28;20479;-82
2022/01/09 06:13:01;;;;;;;4.68;2.17;;;;;;;4.57;100.00;101903.72;5052108;28;20045;-82
2022/01/09 06:15:30;;;;;;;6.97;2.88;;;;;;;4.53;100.00;101905.16;5051105;28;20321;-82
2022/01/09 06:17:58;;;;;;;4.63;1.88;;;;;;;4.52;100.00;101915.34;5050913;28;20045;-84
2022/01/09 06:20:27;;;;;;;5.00;1.98;;;;;;;4.51;100.00;101913.53;5050975;28;20090;-82
2022/01/09 06:22:55;;;;;;;4.00;2.22;;;;;;;4.48;100.00;101911.66;5049900;28;20132;-83
2022/01/09 06:25:24;;;;;;;23.10;2.60;;;;;;;4.47;100.00;101919.25;5050558;28;20106;-83
2022/01/09 06:27:54;;;;;;;6.60;2.60;;;;;;;4.45;100.00;101913.13;5052903;28;20075;-83
2022/01/09 06:30:23;;;;;;;6.00;2.22;;;;;;;4.43;100.00;101923.25;5051449;28;20526;-83
2022/01/09 06:32:51;;;;;;;7.78;2.65;;;;;;;4.41;100.00;101920.56;5038486;28;20053;-83
2022/01/09 06:35:20;;;;;;;6.97;2.65;;;;;;;4.39;100.00;101921.22;5051988;28;20049;-83
2022/01/09 06:37:48;;;;;;;3.67;2.65;;;;;;;4.36;100.00;101926.13;5050552;28;20085;-83
2022/01/09 06:40:18;;;;;;;4.13;1.92;;;;;;;4.32;100.00;101930.13;5052004;28;20041;-82
2022/01/09 06:42:47;;;;;;;4.63;1.90;;;;;;;4.29;100.00;101932.47;5051262;28;20051;-82
2022/01/09 06:45:17;;;;;;;7.25;2.50;;;;;;;4.27;100.00;101931.47;5051430;28;20063;-82
2022/01/09 06:47:45;;;;;;;6.43;3.08;;;;;;;4.27;100.00;101931.47;5051763;28;20112;-83
2022/01/09 06:50:14;;;;;;;4.35;2.15;;;;;;;4.25;100.00;101935.59;5051278;28;20049;-82
2022/01/09 06:52:43;;;;;;;7.72;2.97;;;;;;;4.25;100.00;101929.59;5051115;28;20091;-83
2022/01/09 06:55:12;;;;;;;9.30;2.92;;;;;;;4.24;100.00;101930.34;5051489;28;20450;-82
2022/01/09 06:57:41;;;;;;;5.78;2.35;;;;;;;4.23;100.00;101929.47;5052182;28;20053;-83
2022/01/09 07:00:12;;;;;;;6.53;2.80;;;;;;;4.20;100.00;101925.00;5051669;28;20057;-84
2022/01/09 07:02:42;;;;;;;6.03;2.60;;;;;;;4.13;100.00;101916.75;5038151;28;20110;-84
2022/01/09 07:05:11;;;;;;;5.65;2.22;;;;;;;4.11;100.00;101923.44;5051785;28;20492;-84
2022/01/09 07:07:40;;;;;;;6.45;2.90;;;;;;;4.08;100.00;101918.97;5051766;28;20110;-83
2022/01/09 07:10:10;;;;;;;6.22;2.00;;;;;;;4.07;100.00;101917.19;5052092;28;20045;-84
2022/01/09 07:12:39;;;;;;;4.35;2.28;;;;;;;4.05;100.00;101925.53;5050507;28;20076;-83
2022/01/09 07:15:08;;;;;;;7.18;1.90;;;;;;;4.03;100.00;101920.28;5051512;28;20045;-84
2022/01/09 07:17:37;;;;;;;3.88;1.92;;;;;;;4.01;100.00;101911.63;5052774;28;20053;-83
2022/01/09 07:20:09;;;;;;;5.30;2.05;;;;;;;4.05;100.00;101920.41;5054398;28;20084;-85
2022/01/09 07:22:37;;;;;;;4.07;1.95;;;;;;;4.03;100.00;101916.84;5047934;28;20053;-84
2022/01/09 07:25:07;;;;;;;8.38;2.90;;;;;;;4.02;100.00;101918.53;5050802;28;20048;-84
2022/01/09 07:27:35;;;;;;;4.38;2.03;;;;;;;3.98;100.00;101922.50;5052982;28;20048;-84
2022/01/09 07:30:04;;;;;;;5.63;2.00;;;;;;;3.97;100.00;101919.84;5053824;28;20349;-84
2022/01/09 07:32:36;;;;;;;7.13;1.88;;;;;;;3.95;100.00;101908.59;5051005;28;20104;-84
2022/01/09 07:35:05;;;;;;;6.82;2.33;;;;;;;3.90;100.00;101910.81;5054843;28;20447;-84
2022/01/09 07:37:35;;;;;;;7.15;2.58;;;;;;;3.91;100.00;101919.38;5061459;28;20048;-84
2022/01/09 07:40:04;;;;;;;5.80;2.25;;;;;;;3.88;100.00;101920.06;5051911;28;20087;-83
2022/01/09 07:42:33;;;;;;;4.20;1.75;;;;;;;3.90;100.00;101922.75;5051170;28;20057;-83
2022/01/09 07:45:01;;;;;;;4.38;2.25;;;;;;;3.87;100.00;101928.53;5052681;28;20526;-85
2022/01/09 07:47:29;;;;;;;5.15;2.70;;;;;;;3.86;100.00;101931.84;5052174;28;20349;-84
2022/01/09 07:49:58;;;;;;;4.68;1.95;;;;;;;3.83;100.00;101921.38;5055189;28;20111;-84
2022/01/09 07:52:26;;;;;;;3.88;1.98;;;;;;;3.79;100.00;101919.34;5063990;28;20055;-83
2022/01/09 07:54:56;;;;;;;4.97;1.75;;;;;;;3.72;100.00;101912.00;5061291;28;20470;-83
2022/01/09 07:57:25;;;;;;;4.68;1.90;;;;;;;3.69;100.00;101916.91;5055286;28;20098;-82
2022/01/09 07:59:53;;;;;;;3.42;2.20;;;;;;;3.60;100.00;101900.81;5056181;28;20088;-83
2022/01/09 08:02:22;;;;;;;5.40;2.38;;;;;;;3.64;100.00;101918.19;5055809;28;20095;-83
2022/01/09 08:04:50;;;;;;;8.77;2.80;;;;;;;3.62;100.00;101909.50;5056241;28;20102;-83
2022/01/09 08:07:19;;;;;;;9.00;2.17;;;;;;;3.61;100.00;101907.72;5064896;28;20099;-83
2022/01/09 08:09:47;;;;;;;3.78;1.92;;;;;;;3.59;100.00;101904.16;5057327;28;20044;-84
2022/01/09 08:12:17;;;;;;;9.40;2.38;;;;;;;3.56;100.00;101892.91;5050970;28;20053;-83
2022/01/09 08:14:47;;;;;;;4.38;2.20;;;;;;;3.52;100.00;101903.69;5055688;28;20098;-84
2022/01/09 08:17:16;;;;;;;5.35;2.05;;;;;;;3.51;100.00;101901.03;5056093;28;20106;-83
2022/01/09 08:19:45;;;;;;;3.90;1.83;;;;;;;3.48;100.00;101901.69;5042810;28;20122;-84
2022/01/09 08:22:13;;;;;;;6.07;2.13;;;;;;;3.46;100.00;101898.13;5057551;28;20049;-83
2022/01/09 08:24:42;;;;;;;5.22;2.38;;;;;;;3.46;100.00;101902.31;5055061;28;20091;-84
2022/01/09 08:27:11;;;;;;;5.70;2.22;;;;;;;3.44;100.00;101899.66;5054929;28;20094;-84
2022/01/09 08:29:42;;;;;;;3.60;1.70;;;;;;;3.42;100.00;101890.09;5057950;28;20049;-84
2022/01/09 08:32:12;;;;;;;5.90;2.47;;;;;;;3.39;100.00;101892.41;5056362;28;20075;-83
2022/01/09 08:34:40;;;;;;;2.83;1.58;;;;;;;3.36;100.00;101891.38;5055265;28;20128;-83
2022/01/09 08:37:11;;;;;;;5.50;2.15;;;;;;;3.33;100.00;101890.28;5054730;28;20044;-82
2022/01/09 08:39:40;;;;;;;2.58;1.42;;;;;;;3.30;100.00;101884.94;5041431;28;20103;-85
2022/01/09 08:42:09;;;;;;;3.92;2.08;;;;;;;3.28;100.00;101883.91;5053812;28;20188;-83
2022/01/09 08:44:37;;;;;;;4.50;1.50;;;;;;;3.25;100.00;101886.22;5054185;28;20084;-84
2022/01/09 08:47:08;;;;;;;5.13;1.60;;;;;;;3.22;100.00;101886.00;5054841;28;20111;-81
2022/01/09 08:49:37;;;;;;;3.55;1.48;;;;;;;3.20;100.00;101892.66;5054952;28;20102;-82
2022/01/09 08:52:06;;;;;;;7.60;2.15;;;;;;;3.17;100.00;101892.44;5053973;28;20079;-82
2022/01/09 08:54:34;;;;;;;4.43;1.48;;;;;;;3.20;100.00;101890.09;5055497;28;20128;-84
2022/01/09 08:57:03;;;;;;;5.78;1.80;;;;;;;3.19;100.00;101880.66;5057802;28;20110;-83
2022/01/09 08:59:31;;;;;;;5.40;1.80;;;;;;;3.19;100.00;101883.22;5045263;28;20042;-83
2022/01/09 09:02:00;;;;;;;6.97;1.80;;;;;;;3.14;100.00;101878.63;5049851;28;20098;-84
2022/01/09 09:04:30;;;;;;;4.05;2.00;;;;;;;3.14;100.00;101887.97;5054876;28;20040;-84
2022/01/09 09:06:58;;;;;;;6.20;2.45;;;;;;;3.14;100.00;101878.63;5052884;28;20076;-83
2022/01/09 09:09:27;;;;;;;5.28;1.58;;;;;;;3.17;100.00;101882.19;5053999;28;20111;-83
2022/01/09 09:11:56;;;;;;;5.30;1.85;;;;;;;3.14;100.00;101883.75;5055249;28;20107;-84
2022/01/09 09:14:24;;;;;;;2.85;1.35;;;;;;;3.14;100.00;101883.75;5054147;28;20072;-83
2022/01/09 09:16:53;;;;;;;4.28;1.48;;;;;;;3.11;100.00;101883.50;5053534;28;20103;-83
2022/01/09 09:19:21;;;;;;;6.63;1.88;;;;;;;3.09;100.00;101877.38;5055464;28;20057;-83
2022/01/09 09:21:51;;;;;;;5.88;1.58;;;;;;;3.05;100.00;101872.81;5057337;28;20061;-83
2022/01/09 09:24:20;;;;;;;2.85;1.48;;;;;;;3.02;100.00;101875.09;5055340;28;20037;-85
2022/01/09 09:26:48;;;;;;;3.70;1.70;;;;;;;2.99;100.00;101877.44;5054672;28;20080;-84
2022/01/09 09:29:17;;;;;;;4.13;1.45;;;;;;;2.97;100.00;101868.75;5055996;28;20056;-83
2022/01/09 09:31:45;;;;;;;3.55;1.10;;;;;;;2.94;100.00;101881.31;5060889;28;20044;-83
2022/01/09 09:34:14;;;;;;;4.35;1.63;;;;;;;2.82;100.00;101877.75;5057189;28;20056;-84
2022/01/09 09:36:42;;;;;;;4.25;1.42;;;;;;;2.87;100.00;101894.38;5059733;28;20076;-85
2022/01/09 09:39:12;;;;;;;2.88;1.48;;;;;;;2.86;100.00;101882.34;5054022;28;20081;-82
2022/01/09 09:41:41;;;;;;;3.72;1.90;;;;;;;2.85;100.00;101878.03;5054582;28;20049;-82
2022/01/09 09:44:10;;;;;;;4.45;1.55;;;;;;;2.85;100.00;101873.81;5054090;28;20055;-84
2022/01/09 09:46:39;;;;;;;4.43;1.67;;;;;;;2.87;100.00;101871.38;5054725;28;20049;-84
2022/01/09 09:49:08;;;;;;;3.65;1.45;;;;;;;2.86;100.00;101872.13;5053939;28;20163;-83
2022/01/09 09:51:36;;;;;;;2.88;1.48;;;;;;;2.86;100.00;101874.69;5053717;28;20515;-83
2022/01/09 09:54:13;;;;;;;1.85;1.25;;;;;;;2.87;100.00;101876.50;5052760;28;20102;-84
2022/01/09 09:56:42;;;;;;;3.58;1.33;;;;;;;2.84;100.00;101886.44;5053628;28;20053;-84
2022/01/09 09:59:17;;;;;;;2.15;1.30;;;;;;;2.85;100.00;101888.25;5053064;28;20462;-84
2022/01/09 10:01:45;;;;;;;3.55;1.70;;;;;;;2.86;100.00;101875.59;5053137;28;20044;-85
2022/01/09 10:04:14;;;;;;;2.85;1.35;;;;;;;2.87;100.00;101881.59;5053990;28;20051;-85
2022/01/09 10:06:44;;;;;;;3.13;1.33;;;;;;;2.86;100.00;101872.13;5054285;28;20337;-85
2022/01/09 10:09:15;;;;;;;3.08;1.58;;;;;;;2.81;100.00;101879.44;5053823;28;20049;-85
2022/01/09 10:11:49;;;;;;;3.63;1.48;;;;;;;2.81;100.00;101881.09;5054904;28;20048;-84
2022/01/09 10:14:21;;;;;;;1.88;1.10;;;;;;;2.82;100.00;101872.66;5059234;28;20129;-85
2022/01/09 10:17:12;;;;;;;3.28;1.45;;;;;;;2.81;100.00;101876.88;5053647;28;20045;-86
2022/01/09 10:19:45;;;;;;;3.72;1.50;;;;;;;2.79;100.00;101883.53;5056524;28;20045;-85
2022/01/09 10:22:25;;;;;;;5.53;1.98;;;;;;;2.77;100.00;101882.50;5054003;28;20488;-84
2022/01/09 10:24:56;;;;;;;5.55;2.33;;;;;;;2.73;100.00;101883.94;5044036;28;20045;-83
2022/01/09 10:27:35;;;;;;;3.90;1.83;;;;;;;2.72;100.00;101879.59;5052389;28;20084;-86
2022/01/09 10:30:06;;;;;;;3.83;1.50;;;;;;;2.73;100.00;101883.06;5054086;28;20081;-83
2022/01/09 10:32:35;;;;;;;3.70;1.50;;;;;;;2.70;100.00;101883.72;5053322;28;20102;-83
2022/01/09 10:35:12;;;;;;;2.35;1.60;;;;;;;2.70;100.00;101891.38;5054390;28;20123;-84
2022/01/09 10:37:42;;;;;;;7.68;3.08;;;;;;;2.69;100.00;101892.16;5051517;28;20053;-81
2022/01/09 10:40:19;;;;;;;3.67;2.30;;;;;;;2.69;100.00;101884.47;5051474;28;20080;-83
2022/01/09 10:43:01;;;;;;;3.22;1.27;;;;;;;2.65;100.00;101894.34;5051094;28;20041;-82
2022/01/09 10:45:31;;;;;;;5.13;1.70;;;;;;;2.64;100.00;101887.44;5052130;28;20045;-82
2022/01/09 10:48:08;;;;;;;4.43;1.58;;;;;;;2.63;100.00;101889.09;5051654;28;20528;-82
2022/01/09 10:50:39;;;;;;;1.88;1.30;;;;;;;2.64;100.00;101887.44;5051703;28;20145;-82
2022/01/09 10:53:18;;;;;;;2.35;1.35;;;;;;;2.61;100.00;101888.09;5051629;28;20056;-83
2022/01/09 10:56:01;;;;;;;4.97;1.63;;;;;;;2.61;100.00;101889.75;5038503;28;20482;-84
2022/01/09 10:58:29;;;;;;;3.87;1.40;;;;;;;2.60;100.00;101885.41;5051666;28;20074;-82
2022/01/09 11:03:33;;;;;;;2.55;1.20;;;;;;;2.56;100.00;101899.59;5018916;23;20062;-83
2022/01/09 11:06:02;;;;;;;4.93;2.05;;;;;;;2.52;100.00;101905.25;4971677;28;20055;-83
2022/01/09 11:08:31;;;;;;;3.35;1.48;;;;;;;2.50;100.00;101904.25;4972182;28;20137;-83
2022/01/09 11:11:05;;;;;;;2.92;1.58;;;;;;;2.48;100.00;101890.44;4972398;28;20089;-83
2022/01/09 11:13:37;;;;;;;4.53;1.65;;;;;;;2.46;100.00;101894.53;4972844;28;20078;-83
2022/01/09 11:18:52;;;;;;;4.30;1.17;;;;;;;2.42;100.00;101889.94;4973143;28;20492;-84
2022/01/09 11:21:20;;;;;;;3.00;1.42;;;;;;;2.41;100.00;101899.28;4978779;28;20109;-84
2022/01/09 11:24:18;;;;;;;5.40;1.30;;;;;;;2.37;100.00;101897.25;4981298;28;20058;-87
2022/01/09 11:26:54;;;;;;;2.45;1.17;;;;;;;2.37;100.00;101901.47;4969580;28;20051;-84
2022/01/09 11:29:30;;;;;;;2.28;1.35;;;;;;;2.33;100.00;101894.31;4978487;28;20054;-84
2022/01/09 11:32:09;;;;;;;5.35;1.75;;;;;;;2.29;100.00;101891.53;4973920;28;20086;-85
2022/01/09 11:34:52;;;;;;;2.90;1.30;;;;;;;2.29;100.00;101896.63;4973223;28;20054;-84
2022/01/09 11:37:29;;;;;;;3.25;1.45;;;;;;;2.27;100.00;101890.50;4973660;28;20047;-85
2022/01/09 11:39:58;;;;;;;2.10;1.33;;;;;;;2.26;100.00;101898.91;4959432;28;20522;-83
2022/01/09 11:42:28;;;;;;;5.00;1.25;;;;;;;2.23;100.00;101885.91;4972420;28;20570;-85